Time;durP1;ratioP1;P1;durP2;ratioP2;P2;SDS_P1;SDS_P2;PMS_P1;PMS_P2;Temp;Humidity;BMP_temperature;BMP_pressure;BME280_temperature;BME280_humidity;BME280_pressure;Samples;Min_cycle;Max_cycle;Signal;HPM_P1;HPM_P2
2022/06/13 00:01:30;;;;;;;17.50;4.85;;;;;;;11.82;80.91;101913.09;5068300;28;20484;-78
2022/06/13 00:03:56;;;;;;;19.20;6.30;;;;;;;11.80;80.81;101898.88;5069174;28;20074;-78
2022/06/13 00:06:21;;;;;;;16.80;5.70;;;;;;;11.80;81.16;101904.25;5065536;28;20029;-78
2022/06/13 00:08:47;;;;;;;16.20;5.15;;;;;;;11.79;80.73;101898.97;5061811;28;20259;-77
2022/06/13 00:11:16;;;;;;;18.05;5.97;;;;;;;11.79;80.97;101897.13;5067770;28;20040;-77
2022/06/13 00:13:43;;;;;;;15.38;4.68;;;;;;;11.82;81.08;101886.16;5068984;28;20031;-77
2022/06/13 00:16:09;;;;;;;17.92;5.88;;;;;;;11.81;81.06;101892.50;5051616;28;20029;-77
2022/06/13 00:18:36;;;;;;;16.98;5.90;;;;;;;11.86;81.42;101898.50;5061806;28;20044;-77
2022/06/13 00:21:01;;;;;;;23.50;6.22;;;;;;;11.87;81.18;101888.56;5067446;28;20024;-77
2022/06/13 00:23:27;;;;;;;18.90;5.68;;;;;;;11.87;81.07;101886.75;5068100;28;20334;-77
2022/06/13 00:25:52;;;;;;;20.45;5.72;;;;;;;11.87;80.73;101884.06;5065211;28;20023;-77
2022/06/13 00:28:18;;;;;;;19.70;5.90;;;;;;;11.86;80.45;101885.03;5069599;28;20032;-77
2022/06/13 00:30:43;;;;;;;18.05;5.82;;;;;;;11.89;81.17;101884.81;5068320;28;20039;-77
2022/06/13 00:33:08;;;;;;;17.60;5.57;;;;;;;11.95;80.80;101888.13;5068531;28;20036;-77
2022/06/13 00:35:34;;;;;;;16.65;5.40;;;;;;;11.99;80.97;101873.50;5064833;28;20341;-78
2022/06/13 00:37:59;;;;;;;21.80;5.88;;;;;;;12.03;81.39;101875.03;5069016;28;20219;-78
2022/06/13 00:40:25;;;;;;;19.63;6.28;;;;;;;12.05;80.74;101875.84;5069417;28;20032;-78
2022/06/13 00:42:50;;;;;;;21.65;6.55;;;;;;;12.09;80.69;101874.66;5062338;28;20089;-78
2022/06/13 00:45:21;;;;;;;21.85;6.85;;;;;;;12.12;80.34;101873.59;5068145;28;20119;-78
2022/06/13 00:47:50;;;;;;;21.73;6.95;;;;;;;12.15;80.37;101876.97;5068840;28;20021;-78
2022/06/13 00:50:28;;;;;;;18.70;6.18;;;;;;;12.23;80.14;101865.69;5064961;28;20039;-78
2022/06/13 00:53:07;;;;;;;19.10;5.47;;;;;;;12.30;80.69;101858.06;5065255;28;20056;-78
2022/06/13 00:55:38;;;;;;;18.77;5.72;;;;;;;12.37;80.98;101867.50;5068496;28;20029;-78
2022/06/13 00:58:04;;;;;;;19.52;6.45;;;;;;;12.38;80.58;101869.22;5068234;28;20028;-78
2022/06/13 01:00:32;;;;;;;19.88;6.68;;;;;;;12.43;80.48;101874.31;5067458;28;20031;-77
2022/06/13 01:03:00;;;;;;;21.15;6.18;;;;;;;12.49;79.78;101872.09;5064852;28;20182;-77
2022/06/13 01:05:29;;;;;;;19.15;5.65;;;;;;;12.48;79.60;101872.22;5068916;28;20031;-77
2022/06/13 01:07:59;;;;;;;20.75;7.05;;;;;;;12.54;79.38;101869.97;5067262;28;20417;-77
2022/06/13 01:13:10;;;;;;;20.75;6.20;;;;;;;12.71;79.83;101862.63;5068833;28;20043;-77
2022/06/13 01:16:13;;;;;;;20.75;6.93;;;;;;;12.79;79.28;101870.19;5065428;28;20139;-77
2022/06/13 01:18:47;;;;;;;18.25;6.18;;;;;;;12.77;79.33;101873.84;5068841;28;20028;-78
2022/06/13 01:21:22;;;;;;;23.27;6.90;;;;;;;12.82;80.84;101861.88;5068258;28;20048;-78
2022/06/13 01:24:16;;;;;;;20.88;7.13;;;;;;;12.89;79.65;101861.38;5066224;28;20060;-78
2022/06/13 01:26:45;;;;;;;19.70;6.82;;;;;;;12.94;80.38;101863.75;5064396;28;20040;-78
2022/06/13 01:29:27;;;;;;;21.27;7.32;;;;;;;12.96;80.28;101858.25;5068824;28;20172;-78
2022/06/13 01:32:26;;;;;;;22.77;6.90;;;;;;;13.02;80.01;101864.09;5066161;28;20484;-78
2022/06/13 01:35:17;;;;;;;22.05;6.50;;;;;;;13.03;79.44;101859.56;5070483;28;20024;-78
2022/06/13 01:38:03;;;;;;;22.63;7.45;;;;;;;13.03;79.82;101841.56;5050320;28;20131;-78
2022/06/13 01:40:28;;;;;;;24.00;7.55;;;;;;;13.02;80.02;101844.38;5050781;28;20167;-78
2022/06/13 01:43:30;;;;;;;21.35;7.45;;;;;;;13.07;79.19;101847.59;5046926;28;20040;-78
2022/06/13 01:46:25;;;;;;;22.35;6.38;;;;;;;13.08;80.17;101841.25;5046841;28;20121;-78
2022/06/13 01:48:59;;;;;;;23.10;7.70;;;;;;;13.06;80.03;101838.66;5065192;28;20045;-78
2022/06/13 01:51:33;;;;;;;21.13;6.50;;;;;;;13.10;79.58;101842.00;5065016;28;20562;-78
2022/06/13 01:54:17;;;;;;;19.15;6.80;;;;;;;13.15;78.75;101845.25;5066246;28;20036;-78
2022/06/13 01:56:53;;;;;;;23.50;7.60;;;;;;;13.18;78.42;101846.88;5066782;28;20047;-78
2022/06/13 01:59:25;;;;;;;24.75;8.05;;;;;;;13.21;78.60;101846.69;5050264;28;20036;-78
2022/06/13 02:01:55;;;;;;;22.77;6.65;;;;;;;13.20;77.20;101848.50;5063285;28;20036;-78
2022/06/13 02:04:28;;;;;;;18.80;6.65;;;;;;;13.25;78.26;101856.25;5066672;28;20036;-78
2022/06/13 02:07:16;;;;;;;20.02;6.57;;;;;;;13.27;77.51;101844.41;5070729;28;20028;-78
2022/06/13 02:09:48;;;;;;;19.80;6.95;;;;;;;13.24;78.00;101844.63;5065427;28;20067;-78
2022/06/13 02:12:17;;;;;;;19.60;7.45;;;;;;;13.24;78.35;101843.75;5061280;28;20194;-78
2022/06/13 02:15:00;;;;;;;24.00;6.88;;;;;;;13.25;77.66;101851.75;5068862;28;20185;-78
2022/06/13 02:17:29;;;;;;;21.67;7.30;;;;;;;13.23;76.79;101860.91;5064445;28;20024;-78
2022/06/13 02:19:59;;;;;;;22.73;7.07;;;;;;;13.23;77.27;101860.91;5064148;28;20036;-78
2022/06/13 02:22:41;;;;;;;24.30;6.75;;;;;;;13.21;77.27;101866.44;5061809;28;20053;-78
2022/06/13 02:25:08;;;;;;;21.80;7.13;;;;;;;13.22;77.30;101862.75;5066778;28;20025;-78
2022/06/13 02:27:37;;;;;;;23.77;6.88;;;;;;;13.23;77.46;101858.22;5070352;28;20036;-78
2022/06/13 02:30:10;;;;;;;23.88;8.25;;;;;;;13.23;77.80;101850.97;5069716;28;20032;-78
2022/06/13 02:32:43;;;;;;;20.92;7.65;;;;;;;13.25;78.07;101854.44;5062912;28;20029;-79
2022/06/13 02:35:16;;;;;;;23.25;8.32;;;;;;;13.23;78.59;101853.66;5071507;28;20063;-79
2022/06/13 02:37:49;;;;;;;23.88;7.78;;;;;;;13.28;78.96;101851.53;5070552;28;20505;-79
2022/06/13 02:40:21;;;;;;;22.00;7.55;;;;;;;13.32;79.76;101854.88;5071253;28;20036;-79
2022/06/13 02:42:58;;;;;;;22.75;7.72;;;;;;;13.36;79.17;101847.47;5070943;28;20033;-79
2022/06/13 02:45:45;;;;;;;24.13;7.57;;;;;;;13.40;77.92;101843.59;5066942;28;20031;-78
2022/06/13 02:48:22;;;;;;;20.05;7.57;;;;;;;13.39;78.65;101837.31;5070648;28;20486;-78
2022/06/13 02:50:56;;;;;;;20.38;7.70;;;;;;;13.43;79.22;101838.84;5068989;28;20046;-78
2022/06/13 02:53:41;;;;;;;22.20;7.75;;;;;;;13.47;78.86;101844.91;5059470;28;20075;-78
2022/06/13 02:56:35;;;;;;;22.58;8.93;;;;;;;13.47;78.14;101850.31;5058534;28;20368;-78
2022/06/13 02:59:23;;;;;;;21.92;7.65;;;;;;;13.44;78.72;101845.09;5048700;28;20782;-78
2022/06/13 03:01:51;;;;;;;20.30;8.25;;;;;;;13.41;78.93;101837.22;5086767;28;20047;-78
2022/06/13 03:04:35;;;;;;;24.10;7.65;;;;;;;13.43;79.22;101835.28;5069776;28;20025;-78
2022/06/13 03:07:18;;;;;;;25.77;8.43;;;;;;;13.41;78.92;101835.41;5065958;28;20491;-78
2022/06/13 03:09:51;;;;;;;23.42;8.57;;;;;;;13.38;79.83;101830.22;5059678;28;20117;-77
2022/06/13 03:12:25;;;;;;;20.52;7.57;;;;;;;13.38;80.23;101834.72;5060847;28;20185;-77
2022/06/13 03:15:03;;;;;;;23.70;8.80;;;;;;;13.41;79.56;101839.91;5070699;28;20441;-77
2022/06/13 03:17:51;;;;;;;24.85;9.13;;;;;;;13.42;79.31;101841.66;5068092;28;20093;-77
2022/06/13 03:20:23;;;;;;;23.00;9.20;;;;;;;13.36;79.92;101847.47;5071258;28;20024;-79
2022/06/13 03:23:08;;;;;;;21.60;8.38;;;;;;;13.42;78.83;101849.75;5069248;28;20049;-79
2022/06/13 03:25:50;;;;;;;24.38;8.73;;;;;;;13.39;79.74;101853.50;5070215;28;20078;-79
2022/06/13 03:28:33;;;;;;;27.75;8.57;;;;;;;13.42;79.59;101852.44;5067482;28;20036;-79
2022/06/13 03:31:12;;;;;;;21.65;8.55;;;;;;;13.37;79.49;101854.63;5066939;28;20032;-78
2022/06/13 03:33:40;;;;;;;;;;;;;;;13.42;78.37;101842.50;5071000;28;20028;-78
2022/06/13 03:36:20;;;;;;;21.20;9.02;;;;;;;13.30;79.95;101848.72;5073299;28;19916;-78
2022/06/13 03:38:57;;;;;;;24.40;8.00;;;;;;;13.23;80.56;101858.22;5071329;28;20108;-79
2022/06/13 03:41:26;;;;;;;22.85;8.38;;;;;;;13.18;80.81;101857.69;5058324;28;20131;-79
2022/06/13 03:43:58;;;;;;;19.02;6.68;;;;;;;13.13;81.05;101860.66;5066163;28;20792;-79
2022/06/13 03:46:33;;;;;;;23.05;8.45;;;;;;;13.04;81.39;101861.31;5067653;28;20075;-79
2022/06/13 03:49:14;;;;;;;22.73;8.00;;;;;;;13.02;81.49;101861.41;5069909;28;20467;-79
2022/06/13 03:51:46;;;;;;;21.80;8.82;;;;;;;13.02;81.62;101866.81;5067430;28;20052;-79
2022/06/13 03:54:24;;;;;;;20.77;8.35;;;;;;;12.99;81.96;101871.53;5067786;28;20036;-79
2022/06/13 03:57:04;;;;;;;22.98;8.15;;;;;;;12.90;82.07;101873.91;5070164;28;20048;-79
2022/06/13 03:59:54;;;;;;;22.42;8.45;;;;;;;12.94;81.46;101869.16;5068886;28;20027;-79
2022/06/13 04:02:26;;;;;;;23.02;7.80;;;;;;;12.86;82.26;101872.38;5067687;28;20028;-79
2022/06/13 04:04:53;;;;;;;21.20;8.05;;;;;;;12.79;82.84;101865.66;5068794;28;20039;-79
2022/06/13 04:07:21;;;;;;;26.42;9.23;;;;;;;12.74;82.58;101863.25;5071132;28;20067;-78
2022/06/13 04:09:51;;;;;;;22.23;8.97;;;;;;;12.73;82.74;101875.00;5061721;28;20052;-78
2022/06/13 04:12:37;;;;;;;24.70;8.88;;;;;;;12.75;82.08;101875.78;5069528;28;20020;-78
2022/06/13 04:15:30;;;;;;;25.80;8.88;;;;;;;12.70;83.01;101872.50;5069866;28;20129;-78
2022/06/13 04:18:16;;;;;;;23.23;9.30;;;;;;;12.66;83.00;101875.53;5061445;28;20039;-78
2022/06/13 04:20:56;;;;;;;23.73;8.82;;;;;;;12.57;83.42;101877.84;5067934;28;20082;-78
2022/06/13 04:24:00;;;;;;;23.80;8.73;;;;;;;12.56;83.48;101881.53;5065482;28;20041;-78
2022/06/13 04:26:37;;;;;;;25.25;8.48;;;;;;;12.51;84.19;101889.03;5015939;28;20137;-78
2022/06/13 04:29:17;;;;;;;22.95;8.70;;;;;;;12.44;84.54;101882.31;5003584;28;20037;-78
2022/06/13 04:31:43;;;;;;;24.30;9.02;;;;;;;12.43;85.03;101887.81;5012763;28;20037;-78
2022/06/13 04:34:15;;;;;;;21.77;9.45;;;;;;;12.46;85.29;101882.19;5016161;28;20041;-78
2022/06/13 04:36:43;;;;;;;23.55;8.93;;;;;;;12.48;85.53;101883.84;4997659;28;20054;-78
2022/06/13 04:39:12;;;;;;;24.98;9.68;;;;;;;12.54;85.73;101890.69;5003257;28;20025;-78
2022/06/13 04:41:41;;;;;;;24.15;9.82;;;;;;;12.62;86.09;101896.44;5029759;28;20103;-78
2022/06/13 04:44:12;;;;;;;26.65;10.43;;;;;;;12.69;85.97;101895.06;5015019;28;20176;-78
2022/06/13 04:46:38;;;;;;;25.70;10.07;;;;;;;12.80;86.11;101888.06;4993873;28;20076;-78
2022/06/13 04:49:15;;;;;;;23.27;10.23;;;;;;;12.87;86.03;101893.00;5011256;28;20401;-78
2022/06/13 04:51:43;;;;;;;26.90;11.27;;;;;;;12.91;85.69;101891.81;5006881;28;20154;-78
2022/06/13 04:54:18;;;;;;;22.98;10.15;;;;;;;12.99;85.62;101904.78;5020247;28;20478;-78
2022/06/13 04:56:44;;;;;;;27.05;10.82;;;;;;;13.03;85.56;101900.03;5002030;28;20037;-78
2022/06/13 04:59:14;;;;;;;27.95;10.18;;;;;;;13.12;86.20;101907.53;5026139;28;20465;-78
2022/06/13 05:01:45;;;;;;;23.70;9.50;;;;;;;13.17;85.54;101908.09;5015128;28;20037;-78
2022/06/13 05:04:16;;;;;;;26.05;10.57;;;;;;;13.23;85.94;101910.38;5055483;28;20048;-78
2022/06/13 05:06:51;;;;;;;24.73;9.68;;;;;;;13.27;85.88;101914.59;5058505;28;20429;-78
2022/06/13 05:09:28;;;;;;;27.08;10.35;;;;;;;13.34;86.41;101917.78;5054722;28;20028;-78
2022/06/13 05:12:06;;;;;;;24.92;10.35;;;;;;;13.41;86.69;101913.69;5054597;28;20381;-78
2022/06/13 05:14:37;;;;;;;23.52;10.48;;;;;;;13.48;85.90;101918.69;5056558;28;20039;-78
2022/06/13 05:17:21;;;;;;;25.35;10.50;;;;;;;13.55;85.42;101911.88;5053977;28;20545;-78
2022/06/13 05:20:04;;;;;;;26.08;10.23;;;;;;;13.61;86.34;101917.72;5056731;28;20097;-78
2022/06/13 05:22:35;;;;;;;24.95;10.55;;;;;;;13.70;86.12;101920.75;5057393;28;20472;-78
2022/06/13 05:25:22;;;;;;;24.67;10.70;;;;;;;13.76;85.61;101920.31;5055865;28;20114;-78
2022/06/13 05:27:47;;;;;;;26.48;10.70;;;;;;;13.79;85.82;101917.41;5056557;28;20028;-78
2022/06/13 05:30:14;;;;;;;35.35;10.70;;;;;;;13.88;85.98;101924.88;5063266;28;20024;-78
2022/06/13 05:32:41;;;;;;;28.73;10.85;;;;;;;13.90;84.84;101928.34;5068656;28;20534;-78
2022/06/13 05:35:11;;;;;;;24.15;10.32;;;;;;;13.97;84.76;101926.06;5067774;28;20085;-78
2022/06/13 05:37:36;;;;;;;;;;;;;;;14.05;83.60;101929.09;5065066;28;20436;-78
2022/06/13 05:40:01;;;;;;;26.63;10.65;;;;;;;14.10;84.59;101937.75;5062699;28;19974;-78
2022/06/13 05:42:27;;;;;;;24.90;10.45;;;;;;;14.16;84.09;101942.72;5065371;28;20114;-78
2022/06/13 05:44:52;;;;;;;28.00;10.40;;;;;;;14.21;84.21;101939.66;5065401;28;20066;-78
2022/06/13 05:47:20;;;;;;;31.95;10.52;;;;;;;14.28;84.09;101943.66;5067848;28;20139;-78
2022/06/13 05:49:46;;;;;;;28.38;10.50;;;;;;;14.34;84.17;101953.19;5070745;28;20036;-78
2022/06/13 05:52:12;;;;;;;23.23;9.63;;;;;;;14.38;84.42;101951.13;5059524;28;20451;-78
2022/06/13 05:54:37;;;;;;;22.58;10.70;;;;;;;14.42;84.19;101952.63;5057674;28;20020;-78
2022/06/13 05:57:03;;;;;;;21.90;9.35;;;;;;;14.44;84.00;101950.69;5063993;28;20040;-78
2022/06/13 05:59:29;;;;;;;29.95;11.32;;;;;;;14.51;84.01;101955.53;5058593;28;20056;-78
2022/06/13 06:01:54;;;;;;;29.35;11.05;;;;;;;14.57;84.48;101967.75;5059754;28;20449;-78
2022/06/13 06:04:20;;;;;;;23.90;10.25;;;;;;;14.60;84.25;101966.69;5057611;28;20029;-78
2022/06/13 06:06:45;;;;;;;27.20;10.45;;;;;;;14.63;84.73;101975.47;5054312;28;20477;-79
2022/06/13 06:09:12;;;;;;;27.85;10.98;;;;;;;14.65;83.55;101970.78;5055989;28;20025;-78
2022/06/13 06:11:38;;;;;;;24.55;10.15;;;;;;;14.68;83.11;101973.31;5057063;28;20039;-78
2022/06/13 06:14:03;;;;;;;23.05;9.43;;;;;;;14.70;82.58;101975.91;5056997;28;20037;-78
2022/06/13 06:16:29;;;;;;;24.10;9.65;;;;;;;14.76;82.57;101979.97;5059859;28;20412;-79
2022/06/13 06:18:55;;;;;;;25.27;9.95;;;;;;;14.79;81.94;101980.63;5057386;28;20445;-78
2022/06/13 06:21:21;;;;;;;28.23;9.35;;;;;;;14.83;81.42;101984.84;5055621;28;20055;-78
2022/06/13 06:23:46;;;;;;;23.48;9.60;;;;;;;14.86;79.66;101983.72;5067262;28;20547;-78
2022/06/13 06:26:14;;;;;;;20.92;8.85;;;;;;;14.92;79.56;101982.41;5062768;28;20024;-78
2022/06/13 06:28:40;;;;;;;24.05;7.95;;;;;;;14.95;79.30;101984.88;5052092;28;20033;-78
2022/06/13 06:31:05;;;;;;;23.20;8.43;;;;;;;15.02;79.95;101987.06;5062829;28;20472;-78
2022/06/13 06:33:32;;;;;;;25.65;8.95;;;;;;;15.05;78.37;101985.09;5060079;28;20039;-78
2022/06/13 06:35:58;;;;;;;22.75;7.63;;;;;;;15.10;78.32;101989.19;5059459;28;20067;-78
2022/06/13 06:38:25;;;;;;;26.40;6.72;;;;;;;15.12;78.23;101999.91;5062455;28;20047;-78
2022/06/13 06:40:52;;;;;;;19.67;6.13;;;;;;;15.14;77.04;102006.06;5065834;28;20039;-78
2022/06/13 06:43:17;;;;;;;17.60;5.57;;;;;;;15.15;76.43;102005.09;5066610;28;20094;-78
2022/06/13 06:45:43;;;;;;;17.75;4.35;;;;;;;15.20;75.90;102003.75;5068224;28;20028;-78
2022/06/13 06:48:16;;;;;;;18.58;5.05;;;;;;;15.27;76.79;102012.31;5065673;28;20102;-78
2022/06/13 06:50:43;;;;;;;17.00;5.13;;;;;;;15.35;75.99;102009.88;5064533;28;20074;-78
2022/06/13 06:53:13;;;;;;;15.18;4.63;;;;;;;15.34;73.54;102013.59;5071489;28;20400;-78
2022/06/13 07:01:09;;;;;;;14.60;4.07;;;;;;;15.47;73.79;102020.78;5062605;28;20027;-79
2022/06/13 07:03:35;;;;;;;16.58;3.92;;;;;;;15.49;72.04;102016.09;5071922;28;20458;-78
2022/06/13 07:06:00;;;;;;;21.50;4.50;;;;;;;15.53;69.86;102017.59;5073868;28;20040;-79
2022/06/13 07:08:27;;;;;;;16.52;3.58;;;;;;;15.58;71.85;102010.00;5067627;28;20027;-78
2022/06/13 07:10:53;;;;;;;16.48;4.40;;;;;;;15.64;71.73;102020.34;5064127;28;20099;-78
2022/06/13 07:13:19;;;;;;;17.08;4.30;;;;;;;15.67;70.84;102014.69;5071938;28;20055;-78
2022/06/13 07:15:46;;;;;;;10.88;2.45;;;;;;;15.70;69.09;102013.59;5055641;28;20031;-78
2022/06/13 07:18:11;;;;;;;13.20;3.00;;;;;;;15.72;69.12;102007.09;5073535;28;20753;-78
2022/06/13 07:20:38;;;;;;;18.45;4.05;;;;;;;15.74;67.78;102015.09;5072295;28;20046;-78
2022/06/13 07:23:03;;;;;;;15.45;3.67;;;;;;;15.78;69.23;102016.59;5073214;28;20053;-78
2022/06/13 07:25:30;;;;;;;13.57;3.60;;;;;;;15.88;68.57;102019.47;5072139;28;20039;-78
2022/06/13 07:27:57;;;;;;;15.55;3.58;;;;;;;16.01;69.77;102019.41;5071847;28;20059;-79
2022/06/13 07:30:24;;;;;;;15.60;3.88;;;;;;;16.11;68.34;102019.56;5072634;28;20033;-79
2022/06/13 07:32:52;;;;;;;15.73;4.07;;;;;;;16.17;69.41;102027.22;5073505;28;20105;-79
2022/06/13 07:35:20;;;;;;;17.85;4.72;;;;;;;16.20;67.77;102021.53;5073235;28;20032;-79
2022/06/13 07:40:30;;;;;;;18.75;4.03;;;;;;;16.37;66.81;102026.50;5071882;28;20063;-78
2022/06/13 07:43:01;;;;;;;13.70;3.58;;;;;;;16.37;65.79;102026.50;5071703;28;20549;-78
2022/06/13 07:45:28;;;;;;;15.85;3.63;;;;;;;16.36;65.13;102032.91;5062521;28;20155;-78
2022/06/13 07:47:54;;;;;;;15.60;4.13;;;;;;;16.31;66.60;102032.41;5061021;28;20098;-78
2022/06/13 07:50:22;;;;;;;17.65;4.43;;;;;;;16.34;66.08;102029.47;5072957;28;20028;-78
2022/06/13 07:52:49;;;;;;;15.40;3.97;;;;;;;16.39;66.60;102035.38;5071658;28;20025;-78
2022/06/13 07:55:15;;;;;;;14.27;4.03;;;;;;;16.42;64.06;102032.41;5071428;28;20033;-78
2022/06/13 07:57:41;;;;;;;16.23;4.43;;;;;;;16.47;66.33;102039.31;5071124;28;20055;-78
2022/06/13 08:00:08;;;;;;;13.10;4.22;;;;;;;16.49;64.56;102043.66;5069094;28;20180;-78
2022/06/13 08:02:36;;;;;;;12.77;3.70;;;;;;;16.50;64.98;102045.38;5070021;28;20036;-78
2022/06/13 08:05:01;;;;;;;18.58;4.30;;;;;;;16.57;64.11;102045.75;5060785;28;20439;-78
2022/06/13 08:07:27;;;;;;;13.90;3.70;;;;;;;16.62;65.36;102048.97;5071795;28;20025;-78
2022/06/13 08:09:52;;;;;;;15.40;4.32;;;;;;;16.70;64.61;102057.34;5068633;28;20528;-78
2022/06/13 08:12:20;;;;;;;16.98;3.95;;;;;;;16.70;61.90;102054.63;5071156;28;20016;-78
2022/06/13 08:14:47;;;;;;;23.98;5.68;;;;;;;16.75;62.37;102066.00;5070142;28;20398;-78
2022/06/13 08:17:15;;;;;;;15.50;4.53;;;;;;;16.84;62.96;102068.94;5072708;28;20034;-78
2022/06/13 08:19:40;;;;;;;19.65;4.80;;;;;;;16.89;60.79;102074.91;5072354;28;20029;-78
2022/06/13 08:22:06;;;;;;;19.45;4.28;;;;;;;16.97;60.94;102069.72;5072168;28;20054;-78
2022/06/13 08:24:31;;;;;;;16.33;3.33;;;;;;;16.96;60.22;102072.56;5061391;28;20505;-78
2022/06/13 08:26:57;;;;;;;11.68;3.15;;;;;;;16.90;60.10;102069.34;5052268;28;20071;-78
2022/06/13 08:29:22;;;;;;;26.25;5.00;;;;;;;16.84;59.25;102074.38;5050625;28;20115;-78
2022/06/13 08:31:48;;;;;;;14.85;3.97;;;;;;;16.77;60.85;102077.59;5056790;28;20021;-78
2022/06/13 08:34:13;;;;;;;13.77;3.88;;;;;;;16.73;61.19;102078.81;5070318;28;20115;-78
2022/06/13 08:36:38;;;;;;;12.40;3.75;;;;;;;16.67;62.65;102079.31;5071337;28;20495;-78
2022/06/13 08:39:04;;;;;;;12.93;3.78;;;;;;;16.68;62.40;102081.03;5071833;28;20020;-78
2022/06/13 08:41:50;;;;;;;16.52;3.53;;;;;;;16.76;62.84;102085.84;5069426;28;20025;-78
2022/06/13 08:44:36;;;;;;;13.93;3.47;;;;;;;16.86;63.24;102089.56;5070446;28;20052;-78
2022/06/13 08:47:20;;;;;;;13.48;4.00;;;;;;;16.94;60.78;102083.53;5071888;28;20025;-78
2022/06/13 08:50:04;;;;;;;20.80;3.88;;;;;;;17.02;61.18;102088.38;5070763;28;20478;-78
2022/06/13 08:52:44;;;;;;;12.88;3.13;;;;;;;17.15;61.16;102089.09;5070829;28;20362;-78
2022/06/13 08:55:15;;;;;;;13.18;3.72;;;;;;;17.27;61.77;102090.78;5070110;28;20124;-78
2022/06/13 08:57:46;;;;;;;17.08;4.57;;;;;;;17.34;60.53;102083.00;5071614;28;20028;-78
2022/06/13 09:00:18;;;;;;;14.80;4.15;;;;;;;17.30;57.49;102087.81;5064361;28;20396;-78
2022/06/13 09:02:53;;;;;;;15.77;3.65;;;;;;;17.35;58.77;102098.34;5069209;28;20040;-78
2022/06/13 09:05:33;;;;;;;12.88;3.38;;;;;;;17.37;58.84;102103.63;5070173;28;20373;-77
2022/06/13 09:08:05;;;;;;;;;;;;;;;17.41;59.42;102100.53;5071812;28;20078;-77
2022/06/13 09:10:31;;;;;;;11.15;2.80;;;;;;;17.33;55.04;102108.44;5071450;28;20356;-78
2022/06/13 09:13:05;;;;;;;9.00;2.75;;;;;;;17.27;55.40;102111.66;5070235;28;20032;-78
2022/06/13 09:15:38;;;;;;;14.18;3.22;;;;;;;17.19;54.87;102116.84;5068282;28;20061;-79
2022/06/13 09:18:14;;;;;;;7.05;2.83;;;;;;;17.15;55.26;102112.69;5059265;28;20028;-78
2022/06/13 09:20:43;;;;;;;16.25;3.40;;;;;;;17.24;55.86;102114.66;5064895;28;20024;-78
2022/06/13 09:23:21;;;;;;;8.32;2.58;;;;;;;17.31;56.63;102110.44;5068365;28;20059;-78
2022/06/13 09:25:52;;;;;;;9.02;2.47;;;;;;;17.32;57.11;102117.63;5070047;28;20036;-78
2022/06/13 09:28:25;;;;;;;13.60;3.05;;;;;;;17.39;59.19;102116.09;5071186;28;20031;-78
2022/06/13 09:30:57;;;;;;;9.32;2.50;;;;;;;17.47;58.65;102121.78;5071281;28;20032;-78
2022/06/13 09:33:31;;;;;;;9.65;2.80;;;;;;;17.46;55.64;102130.03;5070188;28;20609;-78
2022/06/13 09:36:00;;;;;;;12.60;2.83;;;;;;;17.40;53.80;102125.13;5070350;28;20055;-78
2022/06/13 09:38:38;;;;;;;6.10;2.23;;;;;;;17.39;56.55;102132.38;5069574;28;20040;-78
2022/06/13 09:41:04;;;;;;;7.65;2.40;;;;;;;17.38;56.67;102136.13;5071314;28;20639;-78
2022/06/13 09:43:36;;;;;;;15.93;3.33;;;;;;;17.38;57.84;102143.38;5069756;28;20328;-78
2022/06/13 09:46:12;;;;;;;15.30;3.50;;;;;;;17.37;59.47;102138.97;5069866;28;20392;-78
2022/06/13 09:49:02;;;;;;;13.80;3.95;;;;;;;17.43;61.18;102138.47;5071147;28;20029;-78
2022/06/13 09:51:45;;;;;;;14.68;3.85;;;;;;;17.47;61.30;102146.22;5054325;28;20382;-78
2022/06/13 09:54:38;;;;;;;9.18;2.55;;;;;;;17.48;59.81;102144.38;5064747;28;20035;-78
2022/06/13 09:57:19;;;;;;;12.27;3.95;;;;;;;17.51;60.81;102148.69;5069612;28;20037;-78
2022/06/13 09:59:59;;;;;;;17.98;4.65;;;;;;;17.53;59.48;102147.59;5068239;28;20024;-78
2022/06/13 10:02:50;;;;;;;13.95;4.55;;;;;;;17.58;59.84;102153.50;5068998;28;20028;-77
2022/06/13 10:05:32;;;;;;;13.73;4.15;;;;;;;17.56;58.11;102151.91;5068796;28;20033;-78
2022/06/13 10:08:10;;;;;;;12.40;3.13;;;;;;;17.58;56.49;102153.50;5067549;28;20055;-77
2022/06/13 10:10:48;;;;;;;12.25;2.78;;;;;;;17.62;57.47;102156.84;5050903;28;20029;-78
2022/06/13 10:13:30;;;;;;;10.70;3.00;;;;;;;17.57;53.91;102159.06;5056833;28;20040;-78
2022/06/13 10:16:09;;;;;;;9.02;2.78;;;;;;;17.54;54.71;102151.16;5070638;28;20037;-78
2022/06/13 10:18:41;;;;;;;7.95;3.35;;;;;;;17.53;54.35;102153.03;5069583;28;20065;-78
2022/06/13 10:21:41;;;;;;;7.68;2.90;;;;;;;17.61;56.68;102155.09;5070515;28;20020;-78
2022/06/13 10:24:12;;;;;;;11.93;3.63;;;;;;;17.70;55.77;102154.34;5068554;28;20515;-78
2022/06/13 10:27:08;;;;;;;14.52;4.57;;;;;;;17.82;58.11;102152.47;5056410;28;20058;-79
2022/06/13 10:30:03;;;;;;;17.30;5.93;;;;;;;17.82;57.78;102155.19;5053017;28;20064;-78
2022/06/13 10:33:10;;;;;;;12.93;3.70;;;;;;;17.82;57.27;102152.47;5066003;28;20055;-78
2022/06/13 10:35:48;;;;;;;8.10;3.03;;;;;;;17.82;53.72;102152.47;5072840;28;20028;-78
2022/06/13 10:38:36;;;;;;;10.13;3.55;;;;;;;17.87;54.28;102149.34;5074265;28;20505;-78
2022/06/13 10:41:01;;;;;;;12.35;3.30;;;;;;;17.82;51.90;102150.59;5073190;28;20593;-77
2022/06/13 10:43:27;;;;;;;7.53;2.97;;;;;;;17.96;54.50;102151.31;5072557;28;20111;-77
2022/06/13 10:45:52;;;;;;;12.80;3.63;;;;;;;18.00;53.97;102139.19;5074159;28;20499;-77
2022/06/13 10:48:24;;;;;;;11.80;3.67;;;;;;;18.10;54.70;102145.59;5074022;28;20031;-77
2022/06/13 10:50:58;;;;;;;11.10;3.45;;;;;;;18.14;55.73;102147.06;5072752;28;20349;-77
2022/06/13 10:53:53;;;;;;;9.85;2.78;;;;;;;18.26;57.15;102155.16;5066347;28;20052;-77
2022/06/13 10:56:27;;;;;;;12.00;3.83;;;;;;;18.36;54.48;102145.22;5052655;28;20029;-77
2022/06/13 10:58:58;;;;;;;16.67;4.57;;;;;;;18.38;54.89;102148.66;5053824;28;20032;-77
2022/06/13 11:01:26;;;;;;;14.35;4.43;;;;;;;18.33;54.13;102153.63;5057165;28;20025;-77
2022/06/13 11:03:59;;;;;;;13.55;4.28;;;;;;;18.30;54.82;102153.91;5073574;28;20028;-77
2022/06/13 11:06:41;;;;;;;11.27;3.55;;;;;;;18.21;52.48;102154.69;5072573;28;20417;-77
2022/06/13 11:09:48;;;;;;;7.75;2.75;;;;;;;18.10;52.44;102152.91;5067202;28;20032;-77
2022/06/13 11:12:32;;;;;;;11.75;2.78;;;;;;;18.20;54.44;102166.56;5062836;28;20048;-77
2022/06/13 11:23:26;;;;;;;7.65;2.70;;;;;;;18.09;51.89;102172.94;5073170;28;20060;-77
2022/06/13 11:25:58;;;;;;;8.48;2.60;;;;;;;18.02;52.42;102169.84;5068848;28;20029;-78
2022/06/13 11:28:28;;;;;;;8.00;3.00;;;;;;;18.00;52.24;102177.28;5051910;28;20031;-77
2022/06/13 11:31:17;;;;;;;10.75;3.13;;;;;;;18.08;51.95;102169.34;5064801;28;20135;-77
2022/06/13 11:33:42;;;;;;;9.73;2.85;;;;;;;18.18;50.13;102163.97;5071922;28;20039;-77
2022/06/13 11:36:16;;;;;;;10.40;2.90;;;;;;;18.24;48.99;102159.88;5070422;28;20028;-77
2022/06/13 11:38:51;;;;;;;9.38;2.78;;;;;;;18.33;51.46;102156.34;5071003;28;20068;-77
2022/06/13 11:41:39;;;;;;;17.58;3.25;;;;;;;18.30;50.38;102157.50;5070980;28;20492;-78
2022/06/13 11:44:11;;;;;;;6.23;2.43;;;;;;;18.23;49.93;102166.28;5052937;28;20075;-77
2022/06/13 11:46:45;;;;;;;10.52;2.78;;;;;;;18.15;50.42;102162.38;5069564;28;20052;-77
2022/06/13 11:49:13;;;;;;;6.40;2.50;;;;;;;18.09;49.98;102157.44;5071579;28;20903;-78
2022/06/13 11:52:06;;;;;;;8.43;2.38;;;;;;;18.11;51.87;102160.03;5067199;28;20124;-78
2022/06/13 11:54:47;;;;;;;7.90;2.63;;;;;;;18.12;51.83;102176.25;5069958;28;20040;-78
2022/06/13 11:57:18;;;;;;;10.82;2.67;;;;;;;18.19;52.49;102159.41;5070248;28;20448;-78
2022/06/13 11:59:47;;;;;;;10.25;2.97;;;;;;;18.29;51.25;102163.94;5071917;28;20032;-78
2022/06/13 12:02:40;;;;;;;10.93;2.97;;;;;;;18.39;52.54;102165.84;5071439;28;20549;-77
2022/06/13 12:05:36;;;;;;;8.52;2.67;;;;;;;18.50;52.47;102171.25;5068302;28;20036;-77